Sanbeimer, Louisiana
Current Conditions -  °F | °C
As of 5:53 PM on Saturday 22 Nov 2014 (Local Time) from KTVR Reporting Station
Few Clouds Few Clouds  
Wind Chill: 64°   Ceiling: Unl
Heat Index: 64°   Visibility: 10mi
Dew Point: 52°   Wind: 8mph
Humidity: 65%   Direction: 140°SE
Pressure: 30.03"   Gusts: NA
Location:  32.5752°N, 91.2825°W
Report Text: KTVR 222353Z AUTO 14007KT 10SM FEW100 18/11 A3003 RMK AO2 SLP174 T01780111 10217 20178 55006
Loading
Personal Weather Stations






























Interactive Weather Map New forecast layout! Learn more

10-Day Weather Forecast

Advertisements
Track Severe Weather on mobile